Time;durP1;ratioP1;P1;durP2;ratioP2;P2;SDS_P1;SDS_P2;PMS_P1;PMS_P2;Temp;Humidity;BMP_temperature;BMP_pressure;BME280_temperature;BME280_humidity;BME280_pressure;Samples;Min_cycle;Max_cycle;Signal;HPM_P1;HPM_P2
2021/09/01 00:01:13;;;;;;;9.70;8.90;;;13.10;99.90;;;;;;4978650;28;20642;-78
2021/09/01 00:03:39;;;;;;;9.50;8.70;;;12.90;99.90;;;;;;4978465;28;20209;-79
2021/09/01 00:06:07;;;;;;;9.47;8.67;;;13.00;99.90;;;;;;4978004;28;20180;-78
2021/09/01 00:08:35;;;;;;;9.67;8.87;;;13.00;99.90;;;;;;4995843;28;20187;-78
2021/09/01 00:11:01;;;;;;;9.57;8.77;;;12.90;99.90;;;;;;4995839;28;20310;-78
2021/09/01 00:13:26;;;;;;;8.63;7.93;;;12.90;99.90;;;;;;4995662;28;20184;-78
2021/09/01 00:15:52;;;;;;;9.73;8.73;;;12.90;99.90;;;;;;4995605;28;20290;-78
2021/09/01 00:18:18;;;;;;;8.57;7.87;;;12.90;99.90;;;;;;4978094;28;20265;-78
2021/09/01 00:20:44;;;;;;;10.63;9.73;;;12.90;99.90;;;;;;4995873;28;20659;-77
2021/09/01 00:23:14;;;;;;;10.20;9.03;;;12.90;99.90;;;;;;4995488;28;20207;-78
2021/09/01 00:25:43;;;;;;;10.13;9.23;;;12.90;99.90;;;;;;4995648;28;20700;-78
2021/09/01 00:28:09;;;;;;;11.20;10.20;;;12.90;99.90;;;;;;4977867;28;20196;-78
2021/09/01 00:30:35;;;;;;;9.73;8.83;;;12.90;99.90;;;;;;4995427;28;20549;-78
2021/09/01 00:33:01;;;;;;;10.87;9.90;;;12.90;99.90;;;;;;4995132;28;20175;-78
2021/09/01 00:35:27;;;;;;;9.90;9.10;;;12.90;99.90;;;;;;4997730;28;20201;-78
2021/09/01 00:37:52;;;;;;;10.03;9.23;;;12.90;99.90;;;;;;4994851;28;20235;-79
2021/09/01 00:40:18;;;;;;;10.30;9.50;;;12.90;99.90;;;;;;4995280;28;20538;-78
2021/09/01 00:42:44;;;;;;;9.73;8.93;;;12.90;99.90;;;;;;4994919;28;20236;-79
2021/09/01 00:45:10;;;;;;;9.13;8.33;;;12.90;99.90;;;;;;4995041;28;20205;-77
2021/09/01 00:47:37;;;;;;;10.10;9.20;;;12.80;99.90;;;;;;4994968;28;20234;-77
2021/09/01 00:50:12;;;;;;;12.47;9.23;;;12.70;99.90;;;;;;4995289;28;20231;-77
2021/09/01 00:52:41;;;;;;;10.03;9.10;;;12.60;99.90;;;;;;4994766;28;20270;-77
2021/09/01 00:55:07;;;;;;;14.90;8.87;;;12.50;99.90;;;;;;4994817;28;20195;-78
2021/09/01 00:57:36;;;;;;;10.30;9.37;;;12.50;99.90;;;;;;4994439;28;20230;-77
2021/09/01 01:00:03;;;;;;;9.33;8.60;;;12.50;99.90;;;;;;4997350;28;20211;-78
2021/09/01 01:02:29;;;;;;;10.27;9.37;;;12.50;99.90;;;;;;4977286;28;20183;-78
2021/09/01 01:04:54;;;;;;;9.93;9.07;;;12.50;99.90;;;;;;4994788;28;20190;-78
2021/09/01 01:07:20;;;;;;;9.53;8.57;;;12.60;99.90;;;;;;4994829;28;20247;-78
2021/09/01 01:09:48;;;;;;;9.30;8.40;;;12.50;99.90;;;;;;4976961;28;20189;-78
2021/09/01 01:12:22;;;;;;;9.60;8.60;;;12.50;99.90;;;;;;4977254;28;20180;-79
2021/09/01 01:14:51;;;;;;;10.07;9.17;;;12.40;99.90;;;;;;4994761;28;20333;-77
2021/09/01 01:17:19;;;;;;;9.20;8.40;;;12.40;99.90;;;;;;4976898;28;20599;-79
2021/09/01 01:19:48;;;;;;;10.20;9.20;;;12.40;99.90;;;;;;4994398;28;20216;-77
2021/09/01 01:22:16;;;;;;;9.67;8.83;;;12.40;99.90;;;;;;4994527;28;20181;-78
2021/09/01 01:24:49;;;;;;;10.13;9.13;;;12.40;99.90;;;;;;4994785;28;20186;-77
2021/09/01 01:27:27;;;;;;;10.63;9.70;;;12.40;99.90;;;;;;4994551;28;20686;-78
2021/09/01 01:29:54;;;;;;;10.63;9.13;;;12.40;99.90;;;;;;4977241;28;20176;-78
2021/09/01 01:32:19;;;;;;;9.90;8.90;;;12.50;99.90;;;;;;4994655;28;20284;-78
2021/09/01 01:34:45;;;;;;;9.87;9.07;;;12.40;99.90;;;;;;4976751;28;20664;-78
2021/09/01 01:37:11;;;;;;;11.20;10.20;;;12.40;99.90;;;;;;4994396;28;20273;-78
2021/09/01 01:39:36;;;;;;;10.37;9.43;;;12.40;99.90;;;;;;4994397;28;20186;-79
2021/09/01 01:42:02;;;;;;;12.17;9.90;;;12.30;99.90;;;;;;4976906;28;20182;-79
2021/09/01 01:44:28;;;;;;;10.57;9.67;;;12.30;99.90;;;;;;4993952;28;20185;-78
2021/09/01 01:46:53;;;;;;;11.17;10.07;;;12.10;99.90;;;;;;4994556;28;20203;-79
2021/09/01 01:49:19;;;;;;;11.60;10.03;;;12.20;99.90;;;;;;4994162;28;20173;-78
2021/09/01 01:51:48;;;;;;;10.33;9.43;;;12.20;99.90;;;;;;4994334;28;20580;-78
2021/09/01 01:54:14;;;;;;;10.10;9.20;;;12.20;99.90;;;;;;4994205;28;20282;-78
2021/09/01 01:56:40;;;;;;;10.60;9.60;;;12.20;99.90;;;;;;4993979;28;20290;-78
2021/09/01 01:59:05;;;;;;;9.93;9.03;;;12.20;99.90;;;;;;4994086;28;20175;-78
2021/09/01 02:01:31;;;;;;;11.33;10.13;;;12.20;99.90;;;;;;4994419;28;20178;-78
2021/09/01 02:03:56;;;;;;;10.63;9.63;;;12.20;99.90;;;;;;4993974;28;20573;-79
2021/09/01 02:06:22;;;;;;;11.00;10.10;;;12.20;99.90;;;;;;4976465;28;20676;-78
2021/09/01 02:08:48;;;;;;;11.37;10.27;;;12.20;99.90;;;;;;4994096;28;20183;-79
2021/09/01 02:11:13;;;;;;;10.50;9.40;;;12.30;99.90;;;;;;4976695;28;20183;-78
2021/09/01 02:13:39;;;;;;;10.90;9.83;;;12.30;99.90;;;;;;4993930;28;20681;-78
2021/09/01 02:16:04;;;;;;;11.77;9.73;;;12.30;99.90;;;;;;4993865;28;20181;-78
2021/09/01 02:18:30;;;;;;;11.07;9.97;;;12.30;99.90;;;;;;4994339;28;20208;-78
2021/09/01 02:20:56;;;;;;;10.70;9.70;;;12.20;99.90;;;;;;4976572;28;20184;-79
2021/09/01 02:23:21;;;;;;;12.30;10.83;;;12.20;99.90;;;;;;4988592;28;20526;-79
2021/09/01 02:25:47;;;;;;;12.03;10.83;;;12.10;99.90;;;;;;4992651;28;20183;-79
2021/09/01 02:28:13;;;;;;;10.23;9.37;;;12.10;99.90;;;;;;4993614;28;20278;-79
2021/09/01 02:30:39;;;;;;;11.80;10.60;;;12.10;99.90;;;;;;4995954;28;20179;-78
2021/09/01 02:33:04;;;;;;;11.93;10.73;;;12.10;99.90;;;;;;4997358;28;20205;-78
2021/09/01 02:35:30;;;;;;;11.80;10.80;;;12.10;99.90;;;;;;5000054;28;20233;-78
2021/09/01 02:37:56;;;;;;;13.33;11.23;;;;;;;;;;4997095;28;20254;-78
2021/09/01 02:40:22;;;;;;;11.60;10.53;;;12.00;99.90;;;;;;4997488;28;20198;-78
2021/09/01 02:42:48;;;;;;;11.40;10.30;;;12.00;99.90;;;;;;4997220;28;20175;-78
2021/09/01 02:45:16;;;;;;;12.30;11.10;;;12.00;99.90;;;;;;4979835;28;20202;-77
2021/09/01 02:47:43;;;;;;;11.20;10.13;;;11.90;99.90;;;;;;4997322;28;20231;-78
2021/09/01 02:50:09;;;;;;;12.43;11.33;;;12.00;99.90;;;;;;4997524;28;20600;-78
2021/09/01 02:52:35;;;;;;;12.83;11.53;;;12.00;99.90;;;;;;4997392;28;20181;-77
2021/09/01 02:55:01;;;;;;;13.40;12.20;;;12.00;99.90;;;;;;4997002;28;20696;-77
2021/09/01 02:57:26;;;;;;;12.10;11.00;;;12.00;99.90;;;;;;4995418;28;20244;-78
2021/09/01 02:59:52;;;;;;;13.03;11.13;;;12.00;99.90;;;;;;4997063;28;20189;-78
2021/09/01 03:02:17;;;;;;;13.53;12.20;;;12.00;99.90;;;;;;4979362;28;20182;-78
2021/09/01 03:04:43;;;;;;;14.07;12.70;;;12.00;99.90;;;;;;4996232;28;20192;-78
2021/09/01 03:07:09;;;;;;;12.37;11.20;;;12.10;99.90;;;;;;4997029;28;20203;-78
2021/09/01 03:09:34;;;;;;;12.37;11.27;;;12.20;99.90;;;;;;4999234;28;20548;-78
2021/09/01 03:12:00;;;;;;;13.67;12.43;;;12.20;99.90;;;;;;4996990;28;20179;-78
2021/09/01 03:14:26;;;;;;;12.70;11.43;;;12.00;99.90;;;;;;4996680;28;20202;-78
2021/09/01 03:16:55;;;;;;;13.80;12.10;;;12.00;99.90;;;;;;4996605;28;20198;-78
2021/09/01 03:19:22;;;;;;;13.13;11.90;;;12.00;99.90;;;;;;4996681;28;20642;-78
2021/09/01 03:21:48;;;;;;;12.77;11.63;;;12.00;99.90;;;;;;4996584;28;20229;-78
2021/09/01 03:24:13;;;;;;;13.50;12.20;;;12.10;99.90;;;;;;4979146;28;20187;-78
2021/09/01 03:26:39;;;;;;;12.70;11.63;;;11.90;99.90;;;;;;4996756;28;20234;-79
2021/09/01 03:29:05;;;;;;;13.17;11.97;;;12.00;99.90;;;;;;4996611;28;20233;-78
2021/09/01 03:31:30;;;;;;;13.37;11.90;;;12.00;99.90;;;;;;4978556;28;20186;-78
2021/09/01 03:33:56;;;;;;;13.43;12.13;;;12.10;99.90;;;;;;4979393;28;20407;-78
2021/09/01 03:36:22;;;;;;;12.73;11.53;;;12.10;99.90;;;;;;4995492;28;20228;-78
2021/09/01 03:38:48;;;;;;;17.43;12.00;;;12.10;99.90;;;;;;4994905;28;20224;-79
2021/09/01 03:41:13;;;;;;;13.10;11.77;;;12.10;99.90;;;;;;4993767;28;20179;-78
2021/09/01 03:43:39;;;;;;;13.67;12.23;;;12.00;99.90;;;;;;4977527;28;20183;-78
2021/09/01 03:46:05;;;;;;;13.77;12.37;;;12.10;99.90;;;;;;4995676;28;20192;-78
2021/09/01 03:48:30;;;;;;;12.90;11.70;;;12.10;99.90;;;;;;4996264;28;20707;-78
2021/09/01 03:50:56;;;;;;;13.10;11.80;;;12.10;99.90;;;;;;4978169;28;20191;-78
2021/09/01 03:53:21;;;;;;;13.03;11.93;;;12.00;99.90;;;;;;4995386;28;20205;-78
2021/09/01 03:55:47;;;;;;;13.03;11.73;;;11.80;99.90;;;;;;4993881;28;20170;-79
2021/09/01 03:58:13;;;;;;;15.37;12.63;;;11.70;99.90;;;;;;4978002;28;20214;-79
2021/09/01 04:00:43;;;;;;;13.50;12.10;;;11.90;99.90;;;;;;4991990;28;20178;-79
2021/09/01 04:03:09;;;;;;;14.23;11.90;;;11.80;99.90;;;;;;4993260;28;20176;-78
2021/09/01 04:05:34;;;;;;;13.37;12.07;;;11.70;99.90;;;;;;4992633;28;20274;-79
2021/09/01 04:08:00;;;;;;;14.70;13.27;;;11.80;99.90;;;;;;4982314;28;20206;-79
2021/09/01 04:10:26;;;;;;;14.47;13.07;;;11.80;99.90;;;;;;4993246;28;20229;-78
2021/09/01 04:12:51;;;;;;;13.20;12.00;;;11.90;99.90;;;;;;4976703;28;20186;-79
2021/09/01 04:15:17;;;;;;;13.67;12.30;;;11.90;99.90;;;;;;4994452;28;20204;-79
2021/09/01 04:17:43;;;;;;;13.83;12.37;;;11.90;99.90;;;;;;4976319;28;20611;-79
2021/09/01 04:20:09;;;;;;;12.90;11.70;;;11.90;99.90;;;;;;4993449;28;20251;-78
2021/09/01 04:22:35;;;;;;;13.00;11.87;;;11.90;99.90;;;;;;4995017;28;20249;-77
2021/09/01 04:25:01;;;;;;;13.33;12.10;;;11.90;99.90;;;;;;4995333;28;20687;-77
2021/09/01 04:27:26;;;;;;;14.13;12.10;;;11.90;99.90;;;;;;4992947;28;20209;-79
2021/09/01 04:29:52;;;;;;;13.53;12.23;;;11.90;99.90;;;;;;4975395;28;20177;-79
2021/09/01 04:32:17;;;;;;;14.70;12.90;;;12.00;99.90;;;;;;4992696;28;20173;-79
2021/09/01 04:34:43;;;;;;;14.87;12.53;;;12.00;99.90;;;;;;4996747;28;20282;-79
2021/09/01 04:37:09;;;;;;;14.50;12.80;;;12.10;99.90;;;;;;4992703;28;20203;-79
2021/09/01 04:39:34;;;;;;;13.53;12.20;;;12.10;99.90;;;;;;4990845;28;20179;-79
2021/09/01 04:42:00;;;;;;;13.00;11.73;;;12.10;99.90;;;;;;4993218;28;20202;-79
2021/09/01 04:44:26;;;;;;;13.40;12.20;;;12.10;99.90;;;;;;4992287;28;20239;-79
2021/09/01 04:46:52;;;;;;;13.97;12.73;;;12.00;99.90;;;;;;4974911;28;20195;-79
2021/09/01 04:49:17;;;;;;;13.57;12.27;;;12.00;99.90;;;;;;4992439;28;20233;-77
2021/09/01 04:51:43;;;;;;;12.83;11.70;;;12.00;99.90;;;;;;4992482;28;20185;-78
2021/09/01 04:54:09;;;;;;;13.70;12.07;;;12.00;99.90;;;;;;4993545;28;20271;-79
2021/09/01 04:56:34;;;;;;;14.40;12.57;;;11.90;99.90;;;;;;4993149;28;20249;-79
2021/09/01 04:59:00;;;;;;;13.63;12.23;;;11.90;99.90;;;;;;4992329;28;20180;-79
2021/09/01 05:01:25;;;;;;;13.67;12.27;;;11.90;99.90;;;;;;4993337;28;20179;-79
2021/09/01 05:03:51;;;;;;;13.70;11.87;;;11.90;99.90;;;;;;4994297;28;20182;-79
2021/09/01 05:06:17;;;;;;;14.30;12.90;;;11.80;99.90;;;;;;4968136;28;20190;-78
2021/09/01 05:08:42;;;;;;;14.83;12.63;;;11.80;99.90;;;;;;4985201;28;20209;-79
2021/09/01 05:11:08;;;;;;;15.40;13.20;;;11.90;99.90;;;;;;4990728;28;20228;-79
2021/09/01 05:13:36;;;;;;;13.33;11.73;;;11.90;99.90;;;;;;4974328;28;20191;-79
2021/09/01 05:16:02;;;;;;;15.33;12.40;;;11.90;99.90;;;;;;4991871;28;20205;-78
2021/09/01 05:18:28;;;;;;;14.40;13.10;;;11.90;99.90;;;;;;4990534;28;20200;-79
2021/09/01 05:20:58;;;;;;;13.90;12.57;;;12.00;99.90;;;;;;4992038;28;20586;-79
2021/09/01 05:23:31;;;;;;;15.33;13.07;;;12.00;99.90;;;;;;4992769;28;20190;-77
2021/09/01 05:25:59;;;;;;;14.57;13.13;;;12.00;99.90;;;;;;4993085;28;20184;-78
2021/09/01 05:28:30;;;;;;;13.27;12.13;;;12.10;99.90;;;;;;4994433;28;20198;-78
2021/09/01 05:30:59;;;;;;;16.17;12.80;;;12.10;99.90;;;;;;4994449;28;20681;-79
2021/09/01 05:33:28;;;;;;;13.33;11.93;;;12.10;99.90;;;;;;4994552;28;20580;-77
2021/09/01 05:35:54;;;;;;;13.43;12.03;;;12.10;99.90;;;;;;4994344;28;20187;-79
2021/09/01 05:38:20;;;;;;;12.83;11.70;;;12.10;99.90;;;;;;4994419;28;20199;-78
2021/09/01 05:40:48;;;;;;;15.83;12.93;;;12.10;99.90;;;;;;4994283;28;20171;-78
2021/09/01 05:43:18;;;;;;;14.53;12.90;;;12.20;99.90;;;;;;4994403;28;20171;-77
2021/09/01 05:45:48;;;;;;;15.30;12.97;;;12.30;99.90;;;;;;4994225;28;20720;-78
2021/09/01 05:48:15;;;;;;;13.80;12.43;;;12.30;99.90;;;;;;4992219;28;20622;-79
2021/09/01 05:50:42;;;;;;;14.80;13.27;;;12.30;99.90;;;;;;4992355;28;20231;-79
2021/09/01 05:53:09;;;;;;;17.20;13.53;;;12.40;99.90;;;;;;4991592;28;20183;-79
2021/09/01 05:55:38;;;;;;;14.37;13.00;;;12.40;99.90;;;;;;4993161;28;20719;-78
2021/09/01 05:58:04;;;;;;;14.83;13.40;;;12.50;99.90;;;;;;4993707;28;20269;-78
2021/09/01 06:00:38;;;;;;;13.73;12.43;;;12.50;99.90;;;;;;4993986;28;20261;-78
2021/09/01 06:03:27;;;;;;;14.30;12.80;;;12.50;99.90;;;;;;4994802;28;20289;-79
2021/09/01 06:05:58;;;;;;;14.27;12.80;;;12.60;99.90;;;;;;4996629;28;20172;-79
2021/09/01 06:08:30;;;;;;;13.90;12.60;;;12.60;99.90;;;;;;4996624;28;20206;-78
2021/09/01 06:10:58;;;;;;;15.23;12.93;;;12.70;99.90;;;;;;4996434;28;20207;-79
2021/09/01 06:13:24;;;;;;;14.40;13.00;;;12.70;99.90;;;;;;4996008;28;20187;-79
2021/09/01 06:15:50;;;;;;;14.33;12.47;;;12.70;99.90;;;;;;4977539;28;20233;-79
2021/09/01 06:18:16;;;;;;;14.53;13.03;;;12.80;99.90;;;;;;4994677;28;20215;-79
2021/09/01 06:20:41;;;;;;;17.80;12.53;;;12.80;99.90;;;;;;4996400;28;20535;-78
2021/09/01 06:23:07;;;;;;;15.70;14.17;;;12.90;99.90;;;;;;4998314;28;20179;-79
2021/09/01 06:25:33;;;;;;;15.97;14.33;;;13.00;99.90;;;;;;4980347;28;20656;-78
2021/09/01 06:28:00;;;;;;;15.57;13.97;;;13.00;99.90;;;;;;4996480;28;20202;-78
2021/09/01 06:30:25;;;;;;;15.80;14.17;;;13.00;99.90;;;;;;4995614;28;20237;-79
2021/09/01 06:32:51;;;;;;;16.67;14.67;;;13.10;99.90;;;;;;4995970;28;20263;-79
2021/09/01 06:35:17;;;;;;;16.80;15.10;;;13.10;99.90;;;;;;4996189;28;20946;-79
2021/09/01 06:37:45;;;;;;;19.03;16.80;;;13.20;99.90;;;;;;4996833;28;20202;-79
2021/09/01 06:40:18;;;;;;;17.40;15.43;;;13.30;99.90;;;;;;5000835;28;20196;-78
2021/09/01 06:42:44;;;;;;;17.23;15.43;;;13.30;99.90;;;;;;4978355;28;20266;-77
2021/09/01 06:45:10;;;;;;;17.33;15.07;;;13.40;99.90;;;;;;4995614;28;20643;-79
2021/09/01 06:47:49;;;;;;;17.20;14.80;;;13.50;99.90;;;;;;4995877;28;20341;-78
2021/09/01 06:50:17;;;;;;;16.17;14.57;;;13.50;99.90;;;;;;4995697;28;20190;-78
2021/09/01 06:52:43;;;;;;;19.37;15.80;;;13.60;99.90;;;;;;4997266;28;20184;-78
2021/09/01 06:55:11;;;;;;;19.83;14.90;;;13.60;99.90;;;;;;4996655;28;20214;-78
2021/09/01 06:57:36;;;;;;;18.00;15.03;;;13.70;99.90;;;;;;4995451;28;20220;-79
2021/09/01 07:00:08;;;;;;;16.73;15.03;;;13.70;99.90;;;;;;4995684;28;20271;-77
2021/09/01 07:02:33;;;;;;;16.40;14.70;;;13.80;99.90;;;;;;4995442;28;20211;-79
2021/09/01 07:04:59;;;;;;;17.83;15.70;;;13.80;99.90;;;;;;4994266;28;20608;-78
2021/09/01 07:07:25;;;;;;;17.13;15.27;;;13.90;99.90;;;;;;4995203;28;20227;-79
2021/09/01 07:09:51;;;;;;;17.00;14.40;;;13.90;99.90;;;;;;4995320;28;20602;-79
2021/09/01 07:12:17;;;;;;;20.63;14.53;;;13.90;99.90;;;;;;4997526;28;20551;-78
2021/09/01 07:14:42;;;;;;;17.60;14.57;;;14.00;99.90;;;;;;4977041;28;20206;-78
2021/09/01 07:17:08;;;;;;;18.00;14.83;;;14.10;99.90;;;;;;4995308;28;20203;-79
2021/09/01 07:19:33;;;;;;;15.60;13.97;;;14.10;99.90;;;;;;4994991;28;20176;-79
2021/09/01 07:21:59;;;;;;;15.73;14.03;;;14.10;99.90;;;;;;4994259;28;20168;-78
2021/09/01 07:24:25;;;;;;;17.83;14.73;;;14.20;99.90;;;;;;4995868;28;20242;-79
2021/09/01 07:26:50;;;;;;;18.73;14.23;;;14.20;99.90;;;;;;4995488;28;20666;-79
2021/09/01 07:29:16;;;;;;;15.57;13.97;;;14.40;99.90;;;;;;4996012;28;20206;-78
2021/09/01 07:31:42;;;;;;;15.20;13.70;;;14.30;99.90;;;;;;4978279;28;20234;-78
2021/09/01 07:34:07;;;;;;;13.97;12.67;;;14.30;99.90;;;;;;4994077;28;20278;-78
2021/09/01 07:36:33;;;;;;;14.17;12.90;;;14.40;99.90;;;;;;4976629;28;20222;-79
2021/09/01 07:38:59;;;;;;;17.00;13.43;;;14.50;99.90;;;;;;4994309;28;20180;-78
2021/09/01 07:41:24;;;;;;;15.17;13.57;;;14.50;99.90;;;;;;4993952;28;20217;-79
2021/09/01 07:43:50;;;;;;;15.07;13.57;;;14.50;99.90;;;;;;4994059;28;20179;-78
2021/09/01 07:46:16;;;;;;;14.23;12.80;;;14.60;99.90;;;;;;4994629;28;20187;-77
2021/09/01 07:48:41;;;;;;;14.57;12.20;;;14.60;99.90;;;;;;4976012;28;20258;-78
2021/09/01 07:51:07;;;;;;;15.63;12.33;;;14.70;99.90;;;;;;4976381;28;20191;-79
2021/09/01 07:53:33;;;;;;;13.53;12.17;;;14.80;99.90;;;;;;4993955;28;20251;-78
2021/09/01 07:55:58;;;;;;;11.27;10.23;;;14.80;99.90;;;;;;4976553;28;20184;-78
2021/09/01 07:58:24;;;;;;;11.00;9.97;;;;;;;;;;4994128;28;20232;-79
2021/09/01 08:00:50;;;;;;;11.37;10.30;;;14.90;99.90;;;;;;4994768;28;20516;-78
2021/09/01 08:03:16;;;;;;;10.93;9.93;;;15.00;99.90;;;;;;4995468;28;20238;-77
2021/09/01 08:05:41;;;;;;;10.87;9.83;;;15.10;99.90;;;;;;4995224;28;20176;-79
2021/09/01 08:08:07;;;;;;;10.37;9.30;;;15.10;99.90;;;;;;4995593;28;20636;-79
2021/09/01 08:10:33;;;;;;;10.57;9.57;;;15.20;99.90;;;;;;4977362;28;20659;-76
2021/09/01 08:12:58;;;;;;;10.73;8.67;;;15.30;99.90;;;;;;4995962;28;20183;-78
2021/09/01 08:15:24;;;;;;;10.97;9.97;;;15.40;99.90;;;;;;4995287;28;20203;-78
2021/09/01 08:17:50;;;;;;;8.90;8.20;;;15.50;99.90;;;;;;4995423;28;20199;-78
2021/09/01 08:20:16;;;;;;;9.23;8.47;;;15.60;99.90;;;;;;4995430;28;20656;-78
2021/09/01 08:22:42;;;;;;;9.50;8.60;;;15.60;99.90;;;;;;4994217;28;20657;-78
2021/09/01 08:25:09;;;;;;;8.00;7.20;;;15.60;99.90;;;;;;4995224;28;20192;-77
2021/09/01 08:27:34;;;;;;;7.83;7.17;;;15.70;99.90;;;;;;4989734;28;20706;-78
2021/09/01 08:30:00;;;;;;;7.47;6.87;;;15.80;99.90;;;;;;4978108;28;20209;-78
2021/09/01 08:32:26;;;;;;;9.00;8.10;;;15.80;99.90;;;;;;4995061;28;20254;-78
2021/09/01 08:34:52;;;;;;;7.63;6.93;;;15.80;99.90;;;;;;4994206;28;20199;-77
2021/09/01 08:37:18;;;;;;;7.57;6.93;;;15.90;99.90;;;;;;4995149;28;20248;-78
2021/09/01 08:39:44;;;;;;;6.80;6.20;;;16.00;99.90;;;;;;4994733;28;20166;-78
2021/09/01 08:42:10;;;;;;;7.80;7.17;;;16.00;99.90;;;;;;4994022;28;20268;-78
2021/09/01 08:44:36;;;;;;;7.90;7.20;;;16.10;99.90;;;;;;4994998;28;20184;-77
2021/09/01 08:47:02;;;;;;;7.47;6.87;;;16.10;99.90;;;;;;4990088;28;20200;-78
2021/09/01 08:49:30;;;;;;;7.33;6.67;;;16.10;99.90;;;;;;4994510;28;20182;-78
2021/09/01 08:51:56;;;;;;;7.53;6.93;;;16.20;99.90;;;;;;4990224;28;20177;-79
2021/09/01 08:54:23;;;;;;;7.10;6.50;;;16.30;99.90;;;;;;5000525;28;20249;-79
2021/09/01 08:56:49;;;;;;;8.53;6.30;;;16.30;99.90;;;;;;5002341;28;20237;-79
2021/09/01 08:59:14;;;;;;;5.83;5.33;;;16.30;99.90;;;;;;4996079;28;20209;-79
2021/09/01 09:01:47;;;;;;;6.20;5.70;;;16.30;99.90;;;;;;4972836;28;20182;-78
2021/09/01 09:04:22;;;;;;;6.13;5.63;;;16.50;99.90;;;;;;4991674;28;20260;-79
2021/09/01 09:06:48;;;;;;;4.97;4.57;;;16.50;99.90;;;;;;4990822;28;20208;-79
2021/09/01 09:09:16;;;;;;;5.33;4.90;;;16.70;99.90;;;;;;4995794;28;20196;-79
2021/09/01 09:11:42;;;;;;;5.07;4.67;;;16.80;99.90;;;;;;4996116;28;20182;-78
2021/09/01 09:14:21;;;;;;;5.23;4.77;;;16.90;99.90;;;;;;4975437;28;20245;-78
2021/09/01 09:16:58;;;;;;;4.53;4.13;;;16.90;99.90;;;;;;4992725;28;20206;-78
2021/09/01 09:19:44;;;;;;;4.97;4.57;;;17.00;99.90;;;;;;4975181;28;20549;-78
2021/09/01 09:22:11;;;;;;;4.80;4.40;;;17.00;99.90;;;;;;4992553;28;20574;-79
2021/09/01 09:24:37;;;;;;;5.00;4.20;;;17.10;99.90;;;;;;4995858;28;20193;-77
2021/09/01 09:27:04;;;;;;;5.10;4.70;;;17.20;99.90;;;;;;4992764;28;20210;-78
2021/09/01 09:29:30;;;;;;;4.50;4.10;;;17.30;99.90;;;;;;4990006;28;20245;-78
2021/09/01 09:32:06;;;;;;;6.27;5.00;;;17.50;99.90;;;;;;4996015;28;20178;-78
2021/09/01 09:34:39;;;;;;;4.47;4.07;;;17.60;99.90;;;;;;4973796;28;20209;-77
2021/09/01 09:37:08;;;;;;;4.73;4.30;;;17.70;99.90;;;;;;4996381;28;20552;-80
2021/09/01 09:39:45;;;;;;;4.80;4.40;;;17.80;99.90;;;;;;4993845;28;20170;-79
2021/09/01 09:42:13;;;;;;;4.87;4.47;;;17.90;99.90;;;;;;4991509;28;20182;-78
2021/09/01 09:44:39;;;;;;;4.87;4.47;;;17.90;99.90;;;;;;4991970;28;20178;-79
2021/09/01 09:47:05;;;;;;;5.00;4.60;;;17.90;99.90;;;;;;4993778;28;20613;-77
2021/09/01 09:49:33;;;;;;;5.10;4.60;;;18.00;99.90;;;;;;4992516;28;20193;-79
2021/09/01 09:51:59;;;;;;;7.10;4.47;;;18.20;99.90;;;;;;4994048;28;20174;-78
2021/09/01 09:54:27;;;;;;;4.57;4.17;;;18.30;99.90;;;;;;4974013;28;20207;-78
2021/09/01 09:57:06;;;;;;;4.90;4.50;;;18.30;99.90;;;;;;4974944;28;20211;-79
2021/09/01 09:59:33;;;;;;;4.93;3.80;;;18.40;99.90;;;;;;4995422;28;20258;-78
2021/09/01 10:01:59;;;;;;;4.70;4.13;;;18.50;99.90;;;;;;4995678;28;20178;-78
2021/09/01 10:04:26;;;;;;;5.23;4.30;;;18.60;99.90;;;;;;4994320;28;20196;-78
2021/09/01 10:06:52;;;;;;;5.63;3.87;;;18.70;99.90;;;;;;4993819;28;20286;-78
2021/09/01 10:09:18;;;;;;;5.13;3.90;;;18.80;99.90;;;;;;4995025;28;20636;-78
2021/09/01 10:11:46;;;;;;;4.10;3.80;;;18.80;99.90;;;;;;4994034;28;20179;-78
2021/09/01 10:14:18;;;;;;;4.50;4.10;;;18.80;99.90;;;;;;4997069;28;20199;-78
2021/09/01 10:17:01;;;;;;;4.17;3.87;;;18.90;99.90;;;;;;4998439;28;20199;-78
2021/09/01 10:19:30;;;;;;;4.07;3.70;;;18.90;99.90;;;;;;4994170;28;20720;-77
2021/09/01 10:21:59;;;;;;;4.70;4.27;;;19.00;99.90;;;;;;4991866;28;20187;-78
2021/09/01 10:24:32;;;;;;;5.50;4.57;;;19.10;99.90;;;;;;4994088;28;20190;-78
2021/09/01 10:27:00;;;;;;;5.70;3.97;;;19.10;99.90;;;;;;4993612;28;20214;-78
2021/09/01 10:29:50;;;;;;;3.77;3.47;;;19.10;99.90;;;;;;4976091;28;20230;-78
2021/09/01 10:32:37;;;;;;;4.13;3.83;;;19.30;99.90;;;;;;4993540;28;20183;-77
2021/09/01 10:35:12;;;;;;;4.90;4.10;;;19.40;99.90;;;;;;4994014;28;20195;-77
2021/09/01 10:37:46;;;;;;;3.90;3.60;;;19.40;99.90;;;;;;4994004;28;20203;-78
2021/09/01 10:40:33;;;;;;;3.90;3.60;;;19.50;99.90;;;;;;4993579;28;20649;-77
2021/09/01 10:43:00;;;;;;;4.03;3.73;;;19.60;99.90;;;;;;4988079;28;20194;-77
2021/09/01 10:45:33;;;;;;;3.90;3.60;;;19.70;99.90;;;;;;4988592;28;20242;-78
2021/09/01 10:47:58;;;;;;;3.40;3.10;;;19.80;99.90;;;;;;4993102;28;20207;-77
2021/09/01 10:50:30;;;;;;;3.37;3.07;;;19.70;99.90;;;;;;5001269;28;20655;-77
2021/09/01 10:53:17;;;;;;;3.70;3.40;;;19.80;99.90;;;;;;5003846;28;20269;-78
2021/09/01 10:56:06;;;;;;;3.77;3.43;;;19.80;99.90;;;;;;5003512;28;20206;-78
2021/09/01 10:58:40;;;;;;;3.70;3.40;;;19.80;99.90;;;;;;4987538;28;20187;-78
2021/09/01 11:01:22;;;;;;;3.00;2.77;;;19.90;99.90;;;;;;4992303;28;20768;-78
2021/09/01 11:03:53;;;;;;;3.00;2.80;;;19.90;99.90;;;;;;4981277;28;20222;-77
2021/09/01 11:06:22;;;;;;;3.37;3.07;;;20.00;99.90;;;;;;4995798;28;20187;-77
2021/09/01 11:09:07;;;;;;;3.60;3.30;;;20.00;99.90;;;;;;4993580;28;20270;-78
2021/09/01 11:11:43;;;;;;;3.63;3.33;;;20.10;99.90;;;;;;4995007;28;20178;-78
2021/09/01 11:14:12;;;;;;;3.27;2.97;;;20.20;99.90;;;;;;4996788;28;20206;-78
2021/09/01 11:16:37;;;;;;;2.90;2.70;;;20.20;99.90;;;;;;4990515;28;20203;-78
2021/09/01 11:19:11;;;;;;;3.43;3.13;;;20.20;99.90;;;;;;4976027;28;20215;-78
2021/09/01 11:21:45;;;;;;;4.27;3.03;;;20.30;99.90;;;;;;4993913;28;20738;-79
2021/09/01 11:24:13;;;;;;;3.77;2.97;;;20.30;99.90;;;;;;4993731;28;20277;-78
2021/09/01 11:26:39;;;;;;;5.43;2.73;;;20.30;99.90;;;;;;4976208;28;20207;-78
2021/09/01 11:29:07;;;;;;;3.80;3.50;;;20.40;99.90;;;;;;4993484;28;20182;-78
2021/09/01 11:31:34;;;;;;;4.73;3.30;;;20.40;99.90;;;;;;4977760;28;20689;-78
2021/09/01 11:34:00;;;;;;;3.90;3.60;;;20.50;99.90;;;;;;4975978;28;20752;-79
2021/09/01 11:36:28;;;;;;;2.83;2.60;;;20.50;99.90;;;;;;4998472;28;20238;-79
2021/09/01 11:38:56;;;;;;;3.00;2.80;;;20.50;99.90;;;;;;4994398;28;20580;-79
2021/09/01 11:41:24;;;;;;;2.67;2.47;;;20.50;99.90;;;;;;4992015;28;20176;-79
2021/09/01 11:43:57;;;;;;;3.30;3.00;;;20.60;99.90;;;;;;4993500;28;20571;-79
2021/09/01 11:46:23;;;;;;;3.37;2.90;;;20.60;99.90;;;;;;4988743;28;20207;-78
2021/09/01 11:48:49;;;;;;;3.20;2.90;;;20.70;99.90;;;;;;4994871;28;20254;-79
2021/09/01 11:51:20;;;;;;;3.23;2.87;;;20.80;99.90;;;;;;4975775;28;20263;-79
2021/09/01 11:53:46;;;;;;;2.77;2.57;;;20.70;99.90;;;;;;4975407;28;20187;-79
2021/09/01 11:56:11;;;;;;;3.00;2.80;;;20.70;99.90;;;;;;4995105;28;20172;-78
2021/09/01 11:58:37;;;;;;;3.20;3.00;;;20.60;99.90;;;;;;4991498;28;20597;-78
2021/09/01 12:01:04;;;;;;;3.50;3.20;;;20.70;99.90;;;;;;4994230;28;20236;-78
2021/09/01 12:03:31;;;;;;;3.13;2.93;;;20.80;99.90;;;;;;4990076;28;20263;-78
2021/09/01 12:06:13;;;;;;;3.03;2.83;;;20.90;99.90;;;;;;4994705;28;20183;-78
2021/09/01 12:08:43;;;;;;;2.90;2.70;;;21.00;99.90;;;;;;4994481;28;20183;-78
2021/09/01 12:11:09;;;;;;;4.70;3.30;;;21.00;99.90;;;;;;4994311;28;20627;-79
2021/09/01 12:13:40;;;;;;;3.60;3.30;;;21.00;99.90;;;;;;4994519;28;20246;-77
2021/09/01 12:16:06;;;;;;;3.47;3.13;;;21.00;99.90;;;;;;4977056;28;20183;-79
2021/09/01 12:18:55;;;;;;;3.80;3.37;;;21.00;99.90;;;;;;4992935;28;20176;-78
2021/09/01 12:21:25;;;;;;;3.57;3.07;;;21.00;99.90;;;;;;4989323;28;20338;-79
2021/09/01 12:24:09;;;;;;;4.03;3.70;;;20.90;99.90;;;;;;4991296;28;20233;-79
2021/09/01 12:27:05;;;;;;;3.77;3.40;;;20.90;99.90;;;;;;5000751;28;20196;-77
2021/09/01 12:29:43;;;;;;;4.33;3.63;;;20.90;99.90;;;;;;4991331;28;20180;-78
2021/09/01 12:32:20;;;;;;;3.67;3.37;;;21.00;99.90;;;;;;4991941;28;20172;-78
2021/09/01 12:34:54;;;;;;;3.57;3.27;;;21.00;99.90;;;;;;4993670;28;20199;-77
2021/09/01 12:37:34;;;;;;;3.60;3.30;;;21.10;99.90;;;;;;4994311;28;20205;-78
2021/09/01 12:40:03;;;;;;;5.20;3.50;;;21.10;99.90;;;;;;4992020;28;20179;-78
2021/09/01 12:42:43;;;;;;;3.70;3.40;;;21.00;99.90;;;;;;4987595;28;20190;-78